Terminal Aerodrome Forecast
Issued by NWS

Home | Current Version | Previous Version | Graphics & Text | Print | Product List | Glossary On
Versions: 1 2 3 4 5 6 7 8 9 10 11 12 13 14 15 16 17 18 19 20
065
FTUS43 KTOP 092333
TAFFOE
TAF
KFOE 092333Z 1000/1024 33015G25KT P6SM SCT100
     FM100030 32011KT P6SM FEW040 SCT100
     FM101400 19010KT P6SM SCT100=

USA.gov is the U.S. government's official web portal to all federal, state and local government web resources and services.